Magnetic Springs, Ohio
Current Conditions -  °F | °C
As of 10:41 AM on Monday 22 Dec 2014 (Local Time) from KDLZ Reporting Station
Haze Haze  
Wind Chill: 26°   Ceiling: 4500
Heat Index: 32°   Visibility: 5mi
Dew Point: 28°   Wind: 6mph
Humidity: 87%   Direction: 120°ESE
Pressure: 30.05"   Gusts: NA
Location:  40.35°N, 83.26°W
Report Text: KDLZ 221541Z AUTO 12005KT 5SM BR OVC045 00/M02 A3005 RMK AO2
Loading
Personal Weather Stations






























Interactive Weather Map New forecast layout! Learn more

10-Day Weather Forecast

Advertisements
Track Severe Weather on mobile